sensor_id;sensor_type;location;lat;lon;timestamp;pressure;altitude;pressure_sealevel;temperature;humidity
30636;BME280;17400;52.392;9.750;2023-03-14T00:01:20;98407.44;;;12.26;100.00
30636;BME280;17400;52.392;9.750;2023-03-14T00:03:48;98406.38;;;12.27;100.00
30636;BME280;17400;52.392;9.750;2023-03-14T00:06:18;98395.78;;;12.26;100.00
30636;BME280;17400;52.392;9.750;2023-03-14T00:08:46;98383.28;;;12.25;100.00
30636;BME280;17400;52.392;9.750;2023-03-14T00:11:16;98361.09;;;12.28;100.00
30636;BME280;17400;52.392;9.750;2023-03-14T00:13:47;98356.16;;;12.25;100.00
30636;BME280;17400;52.392;9.750;2023-03-14T00:16:15;98333.97;;;12.28;100.00
30636;BME280;17400;52.392;9.750;2023-03-14T00:18:43;98318.19;;;12.25;100.00
30636;BME280;17400;52.392;9.750;2023-03-14T00:21:11;98341.53;;;12.26;100.00
30636;BME280;17400;52.392;9.750;2023-03-14T00:23:41;98354.28;;;12.25;100.00
30636;BME280;17400;52.392;9.750;2023-03-14T00:26:10;98345.63;;;12.28;100.00
30636;BME280;17400;52.392;9.750;2023-03-14T00:28:39;98332.06;;;12.28;100.00
30636;BME280;17400;52.392;9.750;2023-03-14T00:31:09;98349.41;;;12.27;100.00
30636;BME280;17400;52.392;9.750;2023-03-14T00:33:37;98371.66;;;12.24;100.00
30636;BME280;17400;52.392;9.750;2023-03-14T00:36:07;98370.84;;;12.24;100.00
30636;BME280;17400;52.392;9.750;2023-03-14T00:38:38;98376.25;;;12.24;100.00
30636;BME280;17400;52.392;9.750;2023-03-14T00:41:09;98373.00;;;12.22;100.00
30636;BME280;17400;52.392;9.750;2023-03-14T00:43:38;98367.56;;;12.22;100.00
30636;BME280;17400;52.392;9.750;2023-03-14T00:46:06;98386.81;;;12.20;100.00
30636;BME280;17400;52.392;9.750;2023-03-14T00:48:34;98384.38;;;12.19;100.00
30636;BME280;17400;52.392;9.750;2023-03-14T00:51:04;98392.75;;;12.17;100.00
30636;BME280;17400;52.392;9.750;2023-03-14T00:53:35;98398.44;;;12.15;100.00
30636;BME280;17400;52.392;9.750;2023-03-14T00:56:04;98382.44;;;12.14;100.00
30636;BME280;17400;52.392;9.750;2023-03-14T00:58:33;98381.63;;;12.13;100.00
30636;BME280;17400;52.392;9.750;2023-03-14T01:01:05;98381.63;;;12.13;100.00
30636;BME280;17400;52.392;9.750;2023-03-14T01:03:33;98371.88;;;12.12;100.00
30636;BME280;17400;52.392;9.750;2023-03-14T01:06:08;98353.97;;;12.11;100.00
30636;BME280;17400;52.392;9.750;2023-03-14T01:08:36;98356.16;;;12.14;100.00
30636;BME280;17400;52.392;9.750;2023-03-14T01:11:08;98333.91;;;12.12;100.00
30636;BME280;17400;52.392;9.750;2023-03-14T01:13:37;98321.13;;;12.13;100.00
30636;BME280;17400;52.392;9.750;2023-03-14T01:16:07;98330.09;;;12.13;100.00
30636;BME280;17400;52.392;9.750;2023-03-14T01:18:36;98333.91;;;12.12;100.00
30636;BME280;17400;52.392;9.750;2023-03-14T01:21:12;98326.31;;;12.09;100.00
30636;BME280;17400;52.392;9.750;2023-03-14T01:23:40;98321.69;;;12.10;100.00
30636;BME280;17400;52.392;9.750;2023-03-14T01:26:09;98318.19;;;12.14;100.00
30636;BME280;17400;52.392;9.750;2023-03-14T01:28:38;98325.22;;;12.15;100.00
30636;BME280;17400;52.392;9.750;2023-03-14T01:31:07;98311.66;;;12.15;100.00
30636;BME280;17400;52.392;9.750;2023-03-14T01:33:36;98314.34;;;12.00;100.00
30636;BME280;17400;52.392;9.750;2023-03-14T01:36:05;98315.41;;;11.99;100.00
30636;BME280;17400;52.392;9.750;2023-03-14T01:38:35;98303.47;;;12.05;100.00
30636;BME280;17400;52.392;9.750;2023-03-14T01:41:03;98304.00;;;11.97;100.00
30636;BME280;17400;52.392;9.750;2023-03-14T01:43:31;98320.84;;;11.99;100.00
30636;BME280;17400;52.392;9.750;2023-03-14T01:46:17;98320.28;;;11.97;100.00
30636;BME280;17400;52.392;9.750;2023-03-14T01:48:55;98334.03;;;11.90;100.00
30636;BME280;17400;52.392;9.750;2023-03-14T01:51:27;98315.34;;;11.89;100.00
30636;BME280;17400;52.392;9.750;2023-03-14T01:54:02;98287.13;;;11.84;100.00
30636;BME280;17400;52.392;9.750;2023-03-14T01:56:32;98259.75;;;11.86;100.00
30636;BME280;17400;52.392;9.750;2023-03-14T01:59:04;98277.66;;;11.87;100.00
30636;BME280;17400;52.392;9.750;2023-03-14T02:01:35;98288.19;;;11.83;100.00
30636;BME280;17400;52.392;9.750;2023-03-14T02:04:05;98293.09;;;11.87;100.00
30636;BME280;17400;52.392;9.750;2023-03-14T02:06:40;98293.91;;;11.87;100.00
30636;BME280;17400;52.392;9.750;2023-03-14T02:09:09;98303.94;;;11.87;100.00
30636;BME280;17400;52.392;9.750;2023-03-14T02:11:37;98296.59;;;11.82;100.00
30636;BME280;17400;52.392;9.750;2023-03-14T02:14:07;98293.09;;;11.81;100.00
30636;BME280;17400;52.392;9.750;2023-03-14T02:16:38;98316.38;;;11.82;100.00
30636;BME280;17400;52.392;9.750;2023-03-14T02:19:07;98316.41;;;11.88;100.00
30636;BME280;17400;52.392;9.750;2023-03-14T02:21:44;98322.91;;;11.87;100.00
30636;BME280;17400;52.392;9.750;2023-03-14T02:24:17;98331.59;;;11.89;100.00
30636;BME280;17400;52.392;9.750;2023-03-14T02:27:09;98330.53;;;11.90;100.00
30636;BME280;17400;52.392;9.750;2023-03-14T02:29:41;98335.13;;;11.89;100.00
30636;BME280;17400;52.392;9.750;2023-03-14T02:32:13;98321.81;;;11.82;100.00
30636;BME280;17400;52.392;9.750;2023-03-14T02:34:43;98317.22;;;11.83;100.00
30636;BME280;17400;52.392;9.750;2023-03-14T02:37:14;98306.09;;;11.84;100.00
30636;BME280;17400;52.392;9.750;2023-03-14T02:39:45;98310.72;;;11.84;100.00
30636;BME280;17400;52.392;9.750;2023-03-14T02:42:16;98309.34;;;11.81;100.00
30636;BME280;17400;52.392;9.750;2023-03-14T02:44:55;98304.72;;;11.82;100.00
30636;BME280;17400;52.392;9.750;2023-03-14T02:47:28;98286.53;;;11.77;100.00
30636;BME280;17400;52.392;9.750;2023-03-14T02:50:00;98306.66;;;11.81;100.00
30636;BME280;17400;52.392;9.750;2023-03-14T02:52:29;98289.81;;;11.79;100.00
30636;BME280;17400;52.392;9.750;2023-03-14T02:54:57;98287.66;;;11.81;100.00
30636;BME280;17400;52.392;9.750;2023-03-14T02:57:26;98283.28;;;11.75;100.00
30636;BME280;17400;52.392;9.750;2023-03-14T02:59:58;98279.78;;;11.75;100.00
30636;BME280;17400;52.392;9.750;2023-03-14T03:02:25;98302.81;;;11.72;100.00
30636;BME280;17400;52.392;9.750;2023-03-14T03:04:53;98288.41;;;11.72;100.00
30636;BME280;17400;52.392;9.750;2023-03-14T03:07:21;98293.03;;;11.71;100.00
30636;BME280;17400;52.392;9.750;2023-03-14T03:09:49;98287.63;;;11.71;100.00
30636;BME280;17400;52.392;9.750;2023-03-14T03:12:16;98281.13;;;11.72;100.00
30636;BME280;17400;52.392;9.750;2023-03-14T03:14:45;98283.28;;;11.75;100.00
30636;BME280;17400;52.392;9.750;2023-03-14T03:17:13;98300.34;;;11.76;100.00
30636;BME280;17400;52.392;9.750;2023-03-14T03:19:41;98282.50;;;11.75;100.00
30636;BME280;17400;52.392;9.750;2023-03-14T03:22:08;98280.00;;;11.68;100.00
30636;BME280;17400;52.392;9.750;2023-03-14T03:24:36;98268.63;;;11.66;100.00
30636;BME280;17400;52.392;9.750;2023-03-14T03:27:04;98271.63;;;11.70;100.00
30636;BME280;17400;52.392;9.750;2023-03-14T03:29:31;98271.63;;;11.70;100.00
30636;BME280;17400;52.392;9.750;2023-03-14T03:32:00;98269.72;;;11.70;100.00
30636;BME280;17400;52.392;9.750;2023-03-14T03:34:28;98263.22;;;11.71;100.00
30636;BME280;17400;52.392;9.750;2023-03-14T03:36:56;98256.16;;;11.70;100.00
30636;BME280;17400;52.392;9.750;2023-03-14T03:39:24;98255.09;;;11.71;100.00
30636;BME280;17400;52.392;9.750;2023-03-14T03:41:51;98253.19;;;11.72;100.00
30636;BME280;17400;52.392;9.750;2023-03-14T03:44:19;98259.97;;;11.74;100.00
30636;BME280;17400;52.392;9.750;2023-03-14T03:46:47;98248.06;;;11.75;100.00
30636;BME280;17400;52.392;9.750;2023-03-14T03:49:16;98269.41;;;11.66;100.00
30636;BME280;17400;52.392;9.750;2023-03-14T03:51:43;98290.56;;;11.64;100.00
30636;BME280;17400;52.392;9.750;2023-03-14T03:54:11;98298.03;;;11.47;100.00
30636;BME280;17400;52.392;9.750;2023-03-14T03:56:39;98306.59;;;11.23;100.00
30636;BME280;17400;52.392;9.750;2023-03-14T03:59:06;98291.53;;;11.00;100.00
30636;BME280;17400;52.392;9.750;2023-03-14T04:01:34;98295.44;;;10.82;100.00
30636;BME280;17400;52.392;9.750;2023-03-14T04:04:02;98286.72;;;10.75;100.00
30636;BME280;17400;52.392;9.750;2023-03-14T04:06:31;98287.78;;;10.74;100.00
30636;BME280;17400;52.392;9.750;2023-03-14T04:09:00;98268.31;;;10.72;100.00
30636;BME280;17400;52.392;9.750;2023-03-14T04:11:27;98273.72;;;10.72;100.00
30636;BME280;17400;52.392;9.750;2023-03-14T04:13:55;98275.00;;;10.64;100.00
30636;BME280;17400;52.392;9.750;2023-03-14T04:16:24;98279.34;;;10.65;100.00
30636;BME280;17400;52.392;9.750;2023-03-14T04:18:52;98280.91;;;10.61;100.00
30636;BME280;17400;52.392;9.750;2023-03-14T04:21:20;98281.97;;;10.55;100.00
30636;BME280;17400;52.392;9.750;2023-03-14T04:23:49;98282.72;;;10.50;100.00
30636;BME280;17400;52.392;9.750;2023-03-14T04:26:17;98281.97;;;10.55;100.00
30636;BME280;17400;52.392;9.750;2023-03-14T04:28:44;98283.75;;;10.44;100.00
30636;BME280;17400;52.392;9.750;2023-03-14T04:31:14;98286.69;;;10.42;100.00
30636;BME280;17400;52.392;9.750;2023-03-14T04:33:42;98283.44;;;10.40;100.00
30636;BME280;17400;52.392;9.750;2023-03-14T04:36:11;98284.28;;;10.46;100.00
30636;BME280;17400;52.392;9.750;2023-03-14T04:38:39;98273.44;;;10.41;100.00
30636;BME280;17400;52.392;9.750;2023-03-14T04:41:08;98257.25;;;10.46;100.00
30636;BME280;17400;52.392;9.750;2023-03-14T04:43:36;98264.78;;;10.39;100.00
30636;BME280;17400;52.392;9.750;2023-03-14T04:46:04;98265.25;;;10.36;100.00
30636;BME280;17400;52.392;9.750;2023-03-14T04:48:32;98267.47;;;10.39;100.00
30636;BME280;17400;52.392;9.750;2023-03-14T04:50:59;98262.59;;;10.41;100.00
30636;BME280;17400;52.392;9.750;2023-03-14T04:53:27;98258.31;;;10.45;100.00
30636;BME280;17400;52.392;9.750;2023-03-14T04:55:58;98263.06;;;10.32;100.00
30636;BME280;17400;52.392;9.750;2023-03-14T04:58:28;98256.34;;;10.35;100.00
30636;BME280;17400;52.392;9.750;2023-03-14T05:00:55;98251.13;;;10.28;100.00
30636;BME280;17400;52.392;9.750;2023-03-14T05:03:28;98250.75;;;10.20;100.00
30636;BME280;17400;52.392;9.750;2023-03-14T05:05:56;98249.88;;;10.14;100.00
30636;BME280;17400;52.392;9.750;2023-03-14T05:08:25;98232.59;;;10.15;100.00
30636;BME280;17400;52.392;9.750;2023-03-14T05:10:53;98219.84;;;10.10;100.00
30636;BME280;17400;52.392;9.750;2023-03-14T05:13:21;98225.72;;;10.02;100.00
30636;BME280;17400;52.392;9.750;2023-03-14T05:15:50;98226.22;;;9.99;100.00
30636;BME280;17400;52.392;9.750;2023-03-14T05:18:18;98221.63;;;9.99;100.00
30636;BME280;17400;52.392;9.750;2023-03-14T05:20:46;98222.41;;;9.95;100.00
30636;BME280;17400;52.392;9.750;2023-03-14T05:23:14;98213.66;;;9.88;100.00
30636;BME280;17400;52.392;9.750;2023-03-14T05:25:42;98222.03;;;9.86;100.00
30636;BME280;17400;52.392;9.750;2023-03-14T05:28:10;98227.63;;;9.79;100.00
30636;BME280;17400;52.392;9.750;2023-03-14T05:30:38;98231.34;;;9.73;100.00
30636;BME280;17400;52.392;9.750;2023-03-14T05:33:07;98226.44;;;9.70;100.00
30636;BME280;17400;52.392;9.750;2023-03-14T05:35:35;98230.22;;;9.69;100.00
30636;BME280;17400;52.392;9.750;2023-03-14T05:38:03;98226.00;;;9.78;100.00
30636;BME280;17400;52.392;9.750;2023-03-14T05:40:30;98223.03;;;9.80;100.00
30636;BME280;17400;52.392;9.750;2023-03-14T05:42:58;98227.13;;;9.82;100.00
30636;BME280;17400;52.392;9.750;2023-03-14T05:45:26;98222.44;;;9.73;100.00
30636;BME280;17400;52.392;9.750;2023-03-14T05:47:53;98222.91;;;9.70;100.00
30636;BME280;17400;52.392;9.750;2023-03-14T05:50:22;98223.22;;;9.73;100.00
30636;BME280;17400;52.392;9.750;2023-03-14T05:52:50;98215.56;;;9.65;100.00
30636;BME280;17400;52.392;9.750;2023-03-14T05:55:18;98217.28;;;9.71;100.00
30636;BME280;17400;52.392;9.750;2023-03-14T05:57:45;98221.50;;;9.62;100.00
30636;BME280;17400;52.392;9.750;2023-03-14T06:00:14;98215.91;;;9.69;100.00
30636;BME280;17400;52.392;9.750;2023-03-14T06:02:42;98219.72;;;9.73;100.00
30636;BME280;17400;52.392;9.750;2023-03-14T06:05:10;98215.38;;;9.72;100.00
30636;BME280;17400;52.392;9.750;2023-03-14T06:07:39;98217.28;;;9.71;100.00
30636;BME280;17400;52.392;9.750;2023-03-14T06:10:07;98209.19;;;9.71;100.00
30636;BME280;17400;52.392;9.750;2023-03-14T06:12:36;98206.50;;;9.76;100.00
30636;BME280;17400;52.392;9.750;2023-03-14T06:15:04;98210.31;;;9.75;100.00
30636;BME280;17400;52.392;9.750;2023-03-14T06:17:32;98212.94;;;9.70;100.00
30636;BME280;17400;52.392;9.750;2023-03-14T06:20:00;98208.09;;;9.72;100.00
30636;BME280;17400;52.392;9.750;2023-03-14T06:22:27;98208.66;;;9.74;100.00
30636;BME280;17400;52.392;9.750;2023-03-14T06:24:57;98218.47;;;9.80;100.00
30636;BME280;17400;52.392;9.750;2023-03-14T06:27:24;98212.03;;;9.87;100.00
30636;BME280;17400;52.392;9.750;2023-03-14T06:29:52;98213.97;;;9.91;100.00
30636;BME280;17400;52.392;9.750;2023-03-14T06:32:20;98221.31;;;9.96;100.00
30636;BME280;17400;52.392;9.750;2023-03-14T06:34:47;98223.00;;;10.02;100.00
30636;BME280;17400;52.392;9.750;2023-03-14T06:37:15;98219.28;;;10.08;100.00
30636;BME280;17400;52.392;9.750;2023-03-14T06:39:46;98228.00;;;10.15;100.00
30636;BME280;17400;52.392;9.750;2023-03-14T06:42:15;98224.50;;;10.15;100.00
30636;BME280;17400;52.392;9.750;2023-03-14T06:44:43;98222.53;;;10.10;100.00
30636;BME280;17400;52.392;9.750;2023-03-14T06:47:10;98222.28;;;10.12;100.00
30636;BME280;17400;52.392;9.750;2023-03-14T06:49:38;98228.63;;;10.23;100.00
30636;BME280;17400;52.392;9.750;2023-03-14T06:52:06;98227.00;;;10.22;100.00
30636;BME280;17400;52.392;9.750;2023-03-14T06:54:33;98220.50;;;10.23;100.00
30636;BME280;17400;52.392;9.750;2023-03-14T06:57:01;98234.53;;;10.20;100.00
30636;BME280;17400;52.392;9.750;2023-03-14T06:59:32;98237.81;;;10.22;100.00
30636;BME280;17400;52.392;9.750;2023-03-14T07:02:00;98233.47;;;10.21;100.00
30636;BME280;17400;52.392;9.750;2023-03-14T07:04:28;98234.84;;;10.23;100.00
30636;BME280;17400;52.392;9.750;2023-03-14T07:06:56;98240.59;;;10.32;100.00
30636;BME280;17400;52.392;9.750;2023-03-14T07:09:23;98250.41;;;10.38;100.00
30636;BME280;17400;52.392;9.750;2023-03-14T07:11:51;98260.16;;;10.39;100.00
30636;BME280;17400;52.392;9.750;2023-03-14T07:14:19;98249.47;;;10.27;100.00
30636;BME280;17400;52.392;9.750;2023-03-14T07:16:49;98240.59;;;10.32;100.00
30636;BME280;17400;52.392;9.750;2023-03-14T07:19:16;98244.88;;;10.28;100.00
30636;BME280;17400;52.392;9.750;2023-03-14T07:21:44;98244.88;;;10.28;100.00
30636;BME280;17400;52.392;9.750;2023-03-14T07:24:12;98241.16;;;10.34;100.00
30636;BME280;17400;52.392;9.750;2023-03-14T07:26:40;98237.66;;;10.33;100.00
30636;BME280;17400;52.392;9.750;2023-03-14T07:29:08;98251.66;;;10.30;100.00
30636;BME280;17400;52.392;9.750;2023-03-14T07:31:36;98248.72;;;10.32;100.00
30636;BME280;17400;52.392;9.750;2023-03-14T07:34:05;98255.31;;;10.41;100.00
30636;BME280;17400;52.392;9.750;2023-03-14T07:36:33;98254.75;;;10.39;100.00
30636;BME280;17400;52.392;9.750;2023-03-14T07:39:00;98249.25;;;10.34;100.00
30636;BME280;17400;52.392;9.750;2023-03-14T07:41:28;98260.97;;;10.40;100.00
30636;BME280;17400;52.392;9.750;2023-03-14T07:43:56;98259.16;;;10.45;100.00
30636;BME280;17400;52.392;9.750;2023-03-14T07:46:24;98261.28;;;10.43;100.00
30636;BME280;17400;52.392;9.750;2023-03-14T07:48:52;98260.91;;;10.34;100.00
30636;BME280;17400;52.392;9.750;2023-03-14T07:51:21;98262.44;;;10.25;100.00
30636;BME280;17400;52.392;9.750;2023-03-14T07:53:48;98266.50;;;10.28;100.00
30636;BME280;17400;52.392;9.750;2023-03-14T07:56:16;98272.56;;;10.35;100.00
30636;BME280;17400;52.392;9.750;2023-03-14T07:58:44;98267.72;;;10.37;100.00
30636;BME280;17400;52.392;9.750;2023-03-14T08:01:12;98272.09;;;10.43;100.00
30636;BME280;17400;52.392;9.750;2023-03-14T08:03:39;98266.16;;;10.41;100.00
30636;BME280;17400;52.392;9.750;2023-03-14T08:06:07;98256.88;;;10.37;100.00
30636;BME280;17400;52.392;9.750;2023-03-14T08:08:37;98264.38;;;10.30;100.00
30636;BME280;17400;52.392;9.750;2023-03-14T08:11:06;98261.31;;;10.21;100.00
30636;BME280;17400;52.392;9.750;2023-03-14T08:13:35;98257.53;;;10.22;100.00
30636;BME280;17400;52.392;9.750;2023-03-14T08:16:03;98262.59;;;10.13;100.00
30636;BME280;17400;52.392;9.750;2023-03-14T08:18:31;98264.22;;;10.14;100.00
30636;BME280;17400;52.392;9.750;2023-03-14T08:20:59;98272.03;;;10.11;100.00
30636;BME280;17400;52.392;9.750;2023-03-14T08:23:27;98268.28;;;10.17;100.00
30636;BME280;17400;52.392;9.750;2023-03-14T08:25:56;98263.25;;;10.26;100.00
30636;BME280;17400;52.392;9.750;2023-03-14T08:28:24;98262.72;;;10.29;100.00
30636;BME280;17400;52.392;9.750;2023-03-14T08:30:57;98264.47;;;10.35;100.00
30636;BME280;17400;52.392;9.750;2023-03-14T08:33:26;98255.34;;;10.46;100.00
30636;BME280;17400;52.392;9.750;2023-03-14T08:35:54;98262.53;;;10.63;100.00
30636;BME280;17400;52.392;9.750;2023-03-14T08:38:22;98258.03;;;10.74;100.00
30636;BME280;17400;52.392;9.750;2023-03-14T08:40:56;98267.00;;;10.79;100.00
30636;BME280;17400;52.392;9.750;2023-03-14T08:43:25;98268.09;;;10.78;100.00
30636;BME280;17400;52.392;9.750;2023-03-14T08:45:57;98264.47;;;10.67;100.00
30636;BME280;17400;52.392;9.750;2023-03-14T08:48:27;98267.69;;;10.64;100.00
30636;BME280;17400;52.392;9.750;2023-03-14T08:50:56;98268.53;;;10.65;100.00
30636;BME280;17400;52.392;9.750;2023-03-14T08:53:24;98267.44;;;10.66;100.00
30636;BME280;17400;52.392;9.750;2023-03-14T08:55:52;98270.72;;;10.68;100.00
30636;BME280;17400;52.392;9.750;2023-03-14T08:58:25;98272.84;;;10.66;100.00
30636;BME280;17400;52.392;9.750;2023-03-14T09:00:52;98266.34;;;10.67;100.00
30636;BME280;17400;52.392;9.750;2023-03-14T09:03:20;98264.72;;;10.66;100.00
30636;BME280;17400;52.392;9.750;2023-03-14T09:05:49;98264.13;;;10.59;100.00
30636;BME280;17400;52.392;9.750;2023-03-14T09:08:17;98269.22;;;10.55;100.00
30636;BME280;17400;52.392;9.750;2023-03-14T09:10:45;98272.72;;;10.50;100.00
30636;BME280;17400;52.392;9.750;2023-03-14T09:13:13;98269.53;;;10.31;100.00
30636;BME280;17400;52.392;9.750;2023-03-14T09:15:41;98270.34;;;10.32;100.00
30636;BME280;17400;52.392;9.750;2023-03-14T09:18:09;98267.53;;;10.22;100.00
30636;BME280;17400;52.392;9.750;2023-03-14T09:20:37;98276.81;;;10.31;100.00
30636;BME280;17400;52.392;9.750;2023-03-14T09:23:05;98271.63;;;10.52;100.00
30636;BME280;17400;52.392;9.750;2023-03-14T09:25:32;98275.47;;;10.56;100.00
30636;BME280;17400;52.392;9.750;2023-03-14T09:28:00;98284.03;;;10.47;100.00
30636;BME280;17400;52.392;9.750;2023-03-14T09:30:28;98278.41;;;10.54;100.00
30636;BME280;17400;52.392;9.750;2023-03-14T09:32:57;98274.75;;;10.65;100.00
30636;BME280;17400;52.392;9.750;2023-03-14T09:35:25;98281.53;;;10.68;100.00
30636;BME280;17400;52.392;9.750;2023-03-14T09:37:53;98274.75;;;10.65;100.00
30636;BME280;17400;52.392;9.750;2023-03-14T09:40:21;98282.66;;;10.72;100.00
30636;BME280;17400;52.392;9.750;2023-03-14T09:42:51;98273.53;;;10.83;100.00
30636;BME280;17400;52.392;9.750;2023-03-14T09:45:27;98276.56;;;10.92;100.00
30636;BME280;17400;52.392;9.750;2023-03-14T09:47:58;98284.38;;;10.89;100.00
30636;BME280;17400;52.392;9.750;2023-03-14T09:50:31;98278.56;;;11.07;100.00
30636;BME280;17400;52.392;9.750;2023-03-14T09:53:03;98275.66;;;11.19;100.00
30636;BME280;17400;52.392;9.750;2023-03-14T09:55:33;98273.78;;;11.20;100.00
30636;BME280;17400;52.392;9.750;2023-03-14T09:58:05;98266.25;;;11.27;100.00
30636;BME280;17400;52.392;9.750;2023-03-14T10:00:36;98275.81;;;11.40;100.00
30636;BME280;17400;52.392;9.750;2023-03-14T10:03:21;98272.00;;;11.36;100.00
30636;BME280;17400;52.392;9.750;2023-03-14T10:05:50;98272.25;;;11.34;100.00
30636;BME280;17400;52.392;9.750;2023-03-14T10:08:18;98263.09;;;11.45;100.00
30636;BME280;17400;52.392;9.750;2023-03-14T10:10:45;98273.41;;;11.48;100.00
30636;BME280;17400;52.392;9.750;2023-03-14T10:13:16;98271.78;;;11.47;100.00
30636;BME280;17400;52.392;9.750;2023-03-14T10:15:48;98263.47;;;11.64;100.00
30636;BME280;17400;52.392;9.750;2023-03-14T10:18:17;98258.31;;;11.63;100.00
30636;BME280;17400;52.392;9.750;2023-03-14T10:20:46;98256.16;;;11.65;100.00
30636;BME280;17400;52.392;9.750;2023-03-14T10:23:22;98257.53;;;11.73;100.00
30636;BME280;17400;52.392;9.750;2023-03-14T10:26:03;98254.53;;;11.69;100.00
30636;BME280;17400;52.392;9.750;2023-03-14T10:28:34;98256.16;;;11.70;100.00
30636;BME280;17400;52.392;9.750;2023-03-14T10:31:05;98252.91;;;11.68;100.00
30636;BME280;17400;52.392;9.750;2023-03-14T10:33:36;98252.66;;;11.70;100.00
30636;BME280;17400;52.392;9.750;2023-03-14T10:36:16;98258.31;;;11.63;100.00
30636;BME280;17400;52.392;9.750;2023-03-14T10:38:45;98279.69;;;11.59;100.00
30636;BME280;17400;52.392;9.750;2023-03-14T10:41:16;98274.81;;;11.61;100.00
30636;BME280;17400;52.392;9.750;2023-03-14T10:43:44;98264.50;;;11.58;100.00
30636;BME280;17400;52.392;9.750;2023-03-14T10:46:14;98272.94;;;11.62;100.00
30636;BME280;17400;52.392;9.750;2023-03-14T10:48:45;98270.22;;;11.62;100.00
30636;BME280;17400;52.392;9.750;2023-03-14T10:51:19;98270.19;;;11.57;100.00
30636;BME280;17400;52.392;9.750;2023-03-14T10:53:49;98261.84;;;11.63;100.00
30636;BME280;17400;52.392;9.750;2023-03-14T10:56:19;98264.28;;;11.70;100.00
30636;BME280;17400;52.392;9.750;2023-03-14T10:58:48;98257.22;;;11.64;100.00
30636;BME280;17400;52.392;9.750;2023-03-14T11:01:35;98257.78;;;11.66;100.00
30636;BME280;17400;52.392;9.750;2023-03-14T11:04:14;98256.44;;;11.69;100.00
30636;BME280;17400;52.392;9.750;2023-03-14T11:06:53;98261.03;;;11.73;100.00
30636;BME280;17400;52.392;9.750;2023-03-14T11:09:25;98266.72;;;11.66;100.00
30636;BME280;17400;52.392;9.750;2023-03-14T11:12:02;98265.06;;;11.65;100.00
30636;BME280;17400;52.392;9.750;2023-03-14T11:14:36;98273.50;;;11.69;100.00
30636;BME280;17400;52.392;9.750;2023-03-14T11:17:14;98263.19;;;11.66;100.00
30636;BME280;17400;52.392;9.750;2023-03-14T11:19:56;98286.22;;;11.63;100.00
30636;BME280;17400;52.392;9.750;2023-03-14T11:22:37;98333.25;;;11.47;100.00
30636;BME280;17400;52.392;9.750;2023-03-14T11:25:16;98353.19;;;10.93;100.00
30636;BME280;17400;52.392;9.750;2023-03-14T11:27:55;98406.69;;;10.14;100.00
30636;BME280;17400;52.392;9.750;2023-03-14T11:30:34;98414.16;;;9.67;100.00
30636;BME280;17400;52.392;9.750;2023-03-14T11:33:08;98429.41;;;9.40;100.00
30636;BME280;17400;52.392;9.750;2023-03-14T11:35:44;98445.84;;;9.21;100.00
30636;BME280;17400;52.392;9.750;2023-03-14T11:38:19;98455.88;;;9.09;100.00
30636;BME280;17400;52.392;9.750;2023-03-14T11:40:53;98477.06;;;9.00;100.00
30636;BME280;17400;52.392;9.750;2023-03-14T11:43:26;98482.84;;;8.92;100.00
30636;BME280;17400;52.392;9.750;2023-03-14T11:46:00;98496.78;;;8.89;100.00
30636;BME280;17400;52.392;9.750;2023-03-14T11:48:35;98502.34;;;8.82;100.00
30636;BME280;17400;52.392;9.750;2023-03-14T11:51:11;98507.53;;;8.72;100.00
30636;BME280;17400;52.392;9.750;2023-03-14T11:53:53;98520.97;;;8.55;100.00
30636;BME280;17400;52.392;9.750;2023-03-14T11:56:31;98533.47;;;8.61;100.00
30636;BME280;17400;52.392;9.750;2023-03-14T11:59:03;98544.41;;;8.54;100.00
30636;BME280;17400;52.392;9.750;2023-03-14T12:01:50;98563.97;;;8.38;100.00
30636;BME280;17400;52.392;9.750;2023-03-14T12:04:31;98597.13;;;8.14;100.00
30636;BME280;17400;52.392;9.750;2023-03-14T12:07:06;98609.50;;;7.80;100.00
30636;BME280;17400;52.392;9.750;2023-03-14T12:09:40;98623.78;;;7.80;100.00
30636;BME280;17400;52.392;9.750;2023-03-14T12:12:12;98645.88;;;7.71;100.00
30636;BME280;17400;52.392;9.750;2023-03-14T12:14:46;98668.69;;;7.38;100.00
30636;BME280;17400;52.392;9.750;2023-03-14T12:17:21;98669.78;;;7.48;100.00
30636;BME280;17400;52.392;9.750;2023-03-14T12:20:00;98687.69;;;7.24;100.00
30636;BME280;17400;52.392;9.750;2023-03-14T12:22:35;98699.88;;;7.27;100.00
30636;BME280;17400;52.392;9.750;2023-03-14T12:25:12;98715.16;;;7.33;100.00
30636;BME280;17400;52.392;9.750;2023-03-14T12:28:18;98721.13;;;7.16;100.00
30636;BME280;17400;52.392;9.750;2023-03-14T12:30:46;98738.66;;;7.00;100.00
30636;BME280;17400;52.392;9.750;2023-03-14T12:33:32;98759.69;;;6.85;100.00
30636;BME280;17400;52.392;9.750;2023-03-14T12:36:04;98770.19;;;6.93;100.00
30636;BME280;17400;52.392;9.750;2023-03-14T12:38:48;98766.91;;;6.91;100.00
30636;BME280;17400;52.392;9.750;2023-03-14T12:41:23;98787.66;;;6.84;100.00
30636;BME280;17400;52.392;9.750;2023-03-14T12:43:52;98794.06;;;6.58;100.00
30636;BME280;17400;52.392;9.750;2023-03-14T12:46:22;98800.84;;;6.67;100.00
30636;BME280;17400;52.392;9.750;2023-03-14T12:48:54;98818.22;;;6.64;100.00
30636;BME280;17400;52.392;9.750;2023-03-14T12:51:29;98828.69;;;6.73;100.00
30636;BME280;17400;52.392;9.750;2023-03-14T12:54:22;98801.00;;;6.72;100.00
30636;BME280;17400;52.392;9.750;2023-03-14T12:57:04;98817.78;;;6.67;100.00
30636;BME280;17400;52.392;9.750;2023-03-14T12:59:36;98823.16;;;6.67;100.00
30636;BME280;17400;52.392;9.750;2023-03-14T13:02:24;98837.53;;;6.48;100.00
30636;BME280;17400;52.392;9.750;2023-03-14T13:04:59;98852.88;;;6.47;100.00
30636;BME280;17400;52.392;9.750;2023-03-14T13:07:34;98864.09;;;6.70;100.00
30636;BME280;17400;52.392;9.750;2023-03-14T13:10:16;98883.81;;;6.89;100.00